createdAt,value
2018-12-15T00:00:10.068Z,1.80
2018-12-15T00:02:37.623Z,1.70
2018-12-15T00:05:05.550Z,1.70
2018-12-15T00:07:33.179Z,1.70
2018-12-15T00:10:00.701Z,1.70
2018-12-15T00:12:28.310Z,1.70
2018-12-15T00:14:55.882Z,1.70
2018-12-15T00:17:23.399Z,1.70
2018-12-15T00:19:50.919Z,1.70
2018-12-15T00:22:18.465Z,1.70
2018-12-15T00:24:46.036Z,1.70
2018-12-15T00:27:13.653Z,1.70
2018-12-15T00:29:41.275Z,1.70
2018-12-15T00:32:08.855Z,1.70
2018-12-15T00:34:36.385Z,1.60
2018-12-15T00:37:04.009Z,1.60
2018-12-15T00:39:31.551Z,1.60
2018-12-15T00:41:59.052Z,1.60
2018-12-15T00:44:26.583Z,1.60
2018-12-15T00:46:54.285Z,1.60
2018-12-15T00:49:21.815Z,1.60
2018-12-15T00:51:49.417Z,1.60
2018-12-15T00:54:16.918Z,1.60
2018-12-15T00:56:44.456Z,1.60
2018-12-15T00:59:11.979Z,1.60
2018-12-15T01:01:39.489Z,1.60
2018-12-15T01:04:07.028Z,1.50
2018-12-15T01:06:34.577Z,1.60
2018-12-15T01:09:02.103Z,1.50
2018-12-15T01:11:30.076Z,1.50
2018-12-15T01:13:57.634Z,1.60
2018-12-15T01:16:25.172Z,1.60
2018-12-15T01:18:52.838Z,1.70
2018-12-15T01:21:21.125Z,1.70
2018-12-15T01:23:48.696Z,1.60
2018-12-15T01:26:16.180Z,1.70
2018-12-15T01:28:43.754Z,1.60
2018-12-15T01:31:11.273Z,1.60
2018-12-15T01:33:38.800Z,1.60
2018-12-15T01:36:06.354Z,1.70
2018-12-15T01:38:33.873Z,1.60
2018-12-15T01:41:01.534Z,1.60
2018-12-15T01:43:29.041Z,1.60
2018-12-15T01:45:56.564Z,1.60
2018-12-15T01:48:24.075Z,1.60
2018-12-15T01:50:51.608Z,1.60
2018-12-15T01:53:19.152Z,1.60
2018-12-15T01:55:46.664Z,1.60
2018-12-15T01:58:14.183Z,1.60
2018-12-15T02:00:41.696Z,1.60
2018-12-15T02:03:09.330Z,1.60
2018-12-15T02:05:37.065Z,1.50
2018-12-15T02:08:04.581Z,1.50
2018-12-15T02:10:32.742Z,1.50
2018-12-15T02:13:00.264Z,1.60
2018-12-15T02:15:27.796Z,1.60
2018-12-15T02:17:55.417Z,1.70
2018-12-15T02:20:22.984Z,1.70
2018-12-15T02:22:50.480Z,1.70
2018-12-15T02:25:18.019Z,1.70
2018-12-15T02:27:45.576Z,1.70
2018-12-15T02:30:13.110Z,1.60
2018-12-15T02:32:40.740Z,1.60
2018-12-15T02:35:08.328Z,1.70
2018-12-15T02:37:35.980Z,1.60
2018-12-15T02:40:04.958Z,1.60
2018-12-15T02:42:32.484Z,1.60
2018-12-15T02:45:00.017Z,1.60
2018-12-15T02:47:27.604Z,1.70
2018-12-15T02:49:55.179Z,1.80
2018-12-15T02:52:22.703Z,1.70
2018-12-15T02:54:50.246Z,1.70
2018-12-15T02:57:17.797Z,1.60
2018-12-15T02:59:45.351Z,1.60
2018-12-15T03:02:12.900Z,1.60
2018-12-15T03:04:40.467Z,1.70
2018-12-15T03:07:07.975Z,1.70
2018-12-15T03:09:35.498Z,1.60
2018-12-15T03:12:03.212Z,1.60
2018-12-15T03:14:30.753Z,1.60
2018-12-15T03:17:03.312Z,1.50
2018-12-15T03:19:30.896Z,1.50
2018-12-15T03:21:58.433Z,1.60
2018-12-15T03:24:25.958Z,1.60
2018-12-15T03:26:53.500Z,1.60
2018-12-15T03:29:21.114Z,1.70
2018-12-15T03:31:48.717Z,1.70
2018-12-15T03:34:16.246Z,1.70
2018-12-15T03:36:43.805Z,1.60
2018-12-15T03:39:11.302Z,1.50
2018-12-15T03:41:38.848Z,1.40
2018-12-15T03:44:06.755Z,1.40
2018-12-15T03:46:34.245Z,1.40
2018-12-15T03:49:01.818Z,1.40
2018-12-15T03:51:29.302Z,1.40
2018-12-15T03:53:56.801Z,1.40
2018-12-15T03:56:24.332Z,1.40
2018-12-15T03:58:52.012Z,1.40
2018-12-15T04:01:19.536Z,1.40
2018-12-15T04:03:47.054Z,1.40
2018-12-15T04:06:14.610Z,1.40
2018-12-15T04:08:42.187Z,1.40
2018-12-15T04:11:09.750Z,1.30
2018-12-15T04:13:37.973Z,1.30
2018-12-15T04:16:05.510Z,1.30
2018-12-15T04:18:33.060Z,1.30
2018-12-15T04:21:00.749Z,1.30
2018-12-15T04:23:28.420Z,1.40
2018-12-15T04:25:55.932Z,1.30
2018-12-15T04:28:23.436Z,1.30
2018-12-15T04:30:50.924Z,1.40
2018-12-15T04:33:18.472Z,1.40
2018-12-15T04:35:45.991Z,1.40
2018-12-15T04:38:13.508Z,1.40
2018-12-15T04:40:41.193Z,1.40
2018-12-15T04:43:09.213Z,1.40
2018-12-15T04:45:36.704Z,1.40
2018-12-15T04:48:10.843Z,1.40
2018-12-15T04:50:33.806Z,1.40
2018-12-15T04:53:01.326Z,1.30
2018-12-15T04:55:28.849Z,1.40
2018-12-15T04:57:56.461Z,1.40
2018-12-15T05:00:23.986Z,1.50
2018-12-15T05:02:51.531Z,1.60
2018-12-15T05:05:19.070Z,1.50
2018-12-15T05:07:46.624Z,1.50
2018-12-15T05:10:14.134Z,1.50
2018-12-15T05:12:41.659Z,1.40
2018-12-15T05:15:09.224Z,1.40
2018-12-15T05:17:36.742Z,1.50
2018-12-15T05:20:04.591Z,1.60
2018-12-15T05:22:32.085Z,1.70
2018-12-15T05:24:59.864Z,1.70
2018-12-15T05:27:27.388Z,1.60
2018-12-15T05:29:54.942Z,1.60
2018-12-15T05:32:22.530Z,1.60
2018-12-15T05:34:50.035Z,1.70
2018-12-15T05:37:17.558Z,1.60
2018-12-15T05:39:45.100Z,1.50
2018-12-15T05:42:12.628Z,1.50
2018-12-15T05:44:40.204Z,1.40
2018-12-15T05:47:07.851Z,1.40
2018-12-15T05:49:35.369Z,1.30
2018-12-15T05:52:02.863Z,1.40
2018-12-15T05:54:30.395Z,1.40
2018-12-15T05:56:57.888Z,1.40
2018-12-15T05:59:25.563Z,1.40
2018-12-15T06:01:53.089Z,1.40
2018-12-15T06:04:20.639Z,1.40
2018-12-15T06:06:48.189Z,1.30
2018-12-15T06:09:15.761Z,1.40
2018-12-15T06:11:43.333Z,1.40
2018-12-15T06:14:10.879Z,1.40
2018-12-15T06:16:38.460Z,1.40
2018-12-15T06:19:06.051Z,1.40
2018-12-15T06:21:33.637Z,1.30
2018-12-15T06:24:01.257Z,1.30
2018-12-15T06:26:28.775Z,1.30
2018-12-15T06:28:56.413Z,1.30
2018-12-15T06:31:23.966Z,1.30
2018-12-15T06:33:51.639Z,1.20
2018-12-15T06:36:19.168Z,1.20
2018-12-15T06:38:46.715Z,1.30
2018-12-15T06:41:14.229Z,1.20
2018-12-15T06:43:41.750Z,1.20
2018-12-15T06:46:09.425Z,1.20
2018-12-15T06:48:38.329Z,1.20
2018-12-15T06:51:06.039Z,1.20
2018-12-15T06:53:33.586Z,1.20
2018-12-15T06:56:01.108Z,1.20
2018-12-15T06:58:28.617Z,1.10
2018-12-15T07:00:56.204Z,1.10
2018-12-15T07:03:23.723Z,1.20
2018-12-15T07:05:51.366Z,1.20
2018-12-15T07:08:18.914Z,1.20
2018-12-15T07:10:46.485Z,1.20
2018-12-15T07:13:14.006Z,1.10
2018-12-15T07:15:41.550Z,1.10
2018-12-15T07:18:09.098Z,1.20
2018-12-15T07:20:36.644Z,1.20
2018-12-15T07:23:04.185Z,1.10
2018-12-15T07:25:32.546Z,1.20
2018-12-15T07:28:00.032Z,1.20
2018-12-15T07:30:27.818Z,1.20
2018-12-15T07:32:55.314Z,1.20
2018-12-15T07:35:22.842Z,1.20
2018-12-15T07:37:50.379Z,1.20
2018-12-15T07:40:17.874Z,1.20
2018-12-15T07:42:46.012Z,1.30
2018-12-15T07:45:13.562Z,1.30
2018-12-15T07:47:41.077Z,1.40
2018-12-15T07:50:08.627Z,1.30
2018-12-15T07:52:36.210Z,1.40
2018-12-15T07:55:04.050Z,1.50
2018-12-15T07:57:31.570Z,1.50
2018-12-15T07:59:59.115Z,1.40
2018-12-15T08:02:26.666Z,1.40
2018-12-15T08:04:54.199Z,1.40
2018-12-15T08:07:21.767Z,1.40
2018-12-15T08:09:50.483Z,1.40
2018-12-15T08:12:24.404Z,1.40
2018-12-15T08:14:51.920Z,1.40
2018-12-15T08:17:19.411Z,1.50
2018-12-15T08:19:47.099Z,1.40
2018-12-15T08:22:14.611Z,1.40
2018-12-15T08:24:42.137Z,1.40
2018-12-15T08:27:09.696Z,1.40
2018-12-15T08:29:37.215Z,1.40
2018-12-15T08:32:04.750Z,1.30
2018-12-15T08:34:32.306Z,1.40
2018-12-15T08:36:59.830Z,1.40
2018-12-15T08:39:27.349Z,1.30
2018-12-15T08:41:54.915Z,1.40
2018-12-15T08:44:22.477Z,1.40
2018-12-15T08:46:50.079Z,1.50
2018-12-15T08:49:17.590Z,1.50
2018-12-15T08:51:45.194Z,1.60
2018-12-15T08:54:12.796Z,1.60
2018-12-15T08:56:40.446Z,1.60
2018-12-15T08:59:07.942Z,1.50
2018-12-15T09:01:35.679Z,1.60
2018-12-15T09:04:03.270Z,1.60
2018-12-15T09:06:30.795Z,1.70
2018-12-15T09:08:58.410Z,1.60
2018-12-15T09:11:25.956Z,1.60
2018-12-15T09:13:53.481Z,1.80
2018-12-15T09:16:26.538Z,1.80
2018-12-15T09:18:52.219Z,1.80
2018-12-15T09:21:20.113Z,1.80
2018-12-15T09:23:47.699Z,1.80
2018-12-15T09:26:15.262Z,1.80
2018-12-15T09:28:42.772Z,2.00
2018-12-15T09:31:10.277Z,1.90
2018-12-15T09:33:37.851Z,1.90
2018-12-15T09:36:05.405Z,1.80
2018-12-15T09:38:33.005Z,1.90
2018-12-15T09:41:00.692Z,2.00
2018-12-15T09:43:28.272Z,1.90
2018-12-15T09:45:55.794Z,1.90
2018-12-15T09:48:24.315Z,1.80
2018-12-15T09:50:51.828Z,1.80
2018-12-15T09:53:19.378Z,1.80
2018-12-15T09:55:47.122Z,1.70
2018-12-15T09:58:14.665Z,1.80
2018-12-15T10:00:42.584Z,1.70
2018-12-15T10:03:10.410Z,1.80
2018-12-15T10:05:37.999Z,1.90
2018-12-15T10:08:05.504Z,2.00
2018-12-15T10:10:33.103Z,2.00
2018-12-15T10:13:00.615Z,2.00
2018-12-15T10:15:28.108Z,1.90
2018-12-15T10:17:55.693Z,1.90
2018-12-15T10:20:23.282Z,2.00
2018-12-15T10:22:50.940Z,2.00
2018-12-15T10:25:18.493Z,2.00
2018-12-15T10:27:46.124Z,2.10
2018-12-15T10:30:19.596Z,2.20
2018-12-15T10:32:52.851Z,2.30
2018-12-15T10:35:21.097Z,2.20
2018-12-15T10:37:48.621Z,2.10
2018-12-15T10:40:16.168Z,2.00
2018-12-15T10:42:43.756Z,2.20
2018-12-15T10:45:11.333Z,2.40
2018-12-15T10:47:38.883Z,2.50
2018-12-15T10:50:08.436Z,2.40
2018-12-15T10:52:35.944Z,2.40
2018-12-15T10:55:04.387Z,2.40
2018-12-15T10:57:44.523Z,2.40
2018-12-15T11:03:15.616Z,2.70
2018-12-15T11:05:43.140Z,2.70
2018-12-15T11:08:16.711Z,2.80
2018-12-15T11:10:58.564Z,2.80
2018-12-15T11:13:39.777Z,2.70
2018-12-15T11:16:21.416Z,2.60
2018-12-15T11:18:49.391Z,2.60
2018-12-15T11:21:16.951Z,2.50
2018-12-15T11:23:44.486Z,2.40
2018-12-15T11:26:12.013Z,2.40
2018-12-15T11:28:39.603Z,2.40
2018-12-15T11:31:07.253Z,2.50
2018-12-15T11:33:34.770Z,2.50
2018-12-15T11:36:02.350Z,2.50
2018-12-15T11:38:31.231Z,2.50
2018-12-15T11:40:59.781Z,2.50
2018-12-15T11:43:27.329Z,2.40
2018-12-15T11:45:54.883Z,2.40
2018-12-15T11:48:22.409Z,2.50
2018-12-15T11:50:49.989Z,2.70
2018-12-15T11:53:17.493Z,2.70
2018-12-15T11:55:45.004Z,2.90
2018-12-15T11:58:12.556Z,3.00
2018-12-15T12:00:40.655Z,3.10
2018-12-15T12:03:08.185Z,3.30
2018-12-15T12:05:35.729Z,3.30
2018-12-15T12:08:03.259Z,3.40
2018-12-15T12:10:30.909Z,3.20
2018-12-15T12:12:58.439Z,3.30
2018-12-15T12:15:25.965Z,3.40
2018-12-15T12:17:53.500Z,3.40
2018-12-15T12:20:21.022Z,3.40
2018-12-15T12:22:48.537Z,3.10
2018-12-15T12:25:16.083Z,2.90
2018-12-15T12:27:43.703Z,2.90
2018-12-15T12:30:11.255Z,2.80
2018-12-15T12:32:38.759Z,2.60
2018-12-15T12:35:06.356Z,2.70
2018-12-15T12:37:34.008Z,3.00
2018-12-15T12:40:01.629Z,3.00
2018-12-15T12:42:29.133Z,2.80
2018-12-15T12:44:56.691Z,2.90
2018-12-15T12:47:24.259Z,3.10
2018-12-15T12:49:56.899Z,3.20
2018-12-15T12:52:21.426Z,3.30
2018-12-15T12:54:48.977Z,3.30
2018-12-15T12:57:16.576Z,3.30
2018-12-15T12:59:44.133Z,3.40
2018-12-15T13:02:11.805Z,3.30
2018-12-15T13:04:39.363Z,3.20
2018-12-15T13:07:06.953Z,3.10
2018-12-15T13:09:34.928Z,3.10
2018-12-15T13:12:02.465Z,3.00
2018-12-15T13:14:30.048Z,2.80
2018-12-15T13:16:57.619Z,2.80
2018-12-15T13:19:25.133Z,2.70
2018-12-15T13:21:52.776Z,2.80
2018-12-15T13:24:20.620Z,2.90
2018-12-15T13:26:48.138Z,2.90
2018-12-15T13:29:15.695Z,3.00
2018-12-15T13:31:43.253Z,3.00
2018-12-15T13:34:10.821Z,2.80
2018-12-15T13:36:38.379Z,2.70
2018-12-15T13:39:06.127Z,2.70
2018-12-15T13:41:34.019Z,2.80
2018-12-15T13:44:01.505Z,2.80
2018-12-15T13:46:29.111Z,2.70
2018-12-15T13:48:56.629Z,2.70
2018-12-15T13:51:24.230Z,2.60
2018-12-15T13:53:51.786Z,2.50
2018-12-15T13:56:19.369Z,2.50
2018-12-15T13:58:46.904Z,2.40
2018-12-15T14:01:14.425Z,2.50
2018-12-15T14:03:41.936Z,2.50
2018-12-15T14:06:09.487Z,2.40
2018-12-15T14:08:37.095Z,2.40
2018-12-15T14:11:04.683Z,2.40
2018-12-15T14:13:32.197Z,2.40
2018-12-15T14:15:59.723Z,2.40
2018-12-15T14:18:27.239Z,2.30
2018-12-15T14:20:54.750Z,2.20
2018-12-15T14:23:22.289Z,2.20
2018-12-15T14:25:49.891Z,2.30
2018-12-15T14:28:17.498Z,2.40
2018-12-15T14:30:45.053Z,2.40
2018-12-15T14:33:12.576Z,2.50
2018-12-15T14:35:40.443Z,2.40
2018-12-15T14:38:08.033Z,2.40
2018-12-15T14:40:35.565Z,2.40
2018-12-15T14:43:03.130Z,2.30
2018-12-15T14:45:30.659Z,2.30
2018-12-15T14:47:58.197Z,2.30
2018-12-15T14:50:25.738Z,2.30
2018-12-15T14:52:53.366Z,2.30
2018-12-15T14:55:20.925Z,2.30
2018-12-15T14:57:48.492Z,2.30
2018-12-15T15:00:16.062Z,2.30
2018-12-15T15:02:43.627Z,2.30
2018-12-15T15:05:11.531Z,2.40
2018-12-15T15:07:39.073Z,2.30
2018-12-15T15:10:06.937Z,2.20
2018-12-15T15:12:34.496Z,2.30
2018-12-15T15:15:02.186Z,2.40
2018-12-15T15:17:29.689Z,2.40
2018-12-15T15:19:57.234Z,2.40
2018-12-15T15:22:24.752Z,2.30
2018-12-15T15:24:52.339Z,2.30
2018-12-15T15:27:19.937Z,2.20
2018-12-15T15:29:47.485Z,2.00
2018-12-15T15:32:14.994Z,1.70
2018-12-15T15:34:42.872Z,1.70
2018-12-15T15:37:10.428Z,1.70
2018-12-15T15:39:37.981Z,1.70
2018-12-15T15:42:07.142Z,1.70
2018-12-15T15:44:34.683Z,1.60
2018-12-15T15:47:02.191Z,1.60
2018-12-15T15:49:29.751Z,1.70
2018-12-15T15:51:57.271Z,1.60
2018-12-15T15:54:24.887Z,1.70
2018-12-15T15:56:52.492Z,1.70
2018-12-15T15:59:20.066Z,1.60
2018-12-15T16:01:47.664Z,1.70
2018-12-15T16:04:15.183Z,1.70
2018-12-15T16:06:42.881Z,1.70
2018-12-15T16:09:10.411Z,1.70
2018-12-15T16:11:38.179Z,1.70
2018-12-15T16:14:06.601Z,1.80
2018-12-15T16:16:34.499Z,1.80
2018-12-15T16:19:02.102Z,1.90
2018-12-15T16:21:29.717Z,1.90
2018-12-15T16:23:57.392Z,2.00
2018-12-15T16:26:24.988Z,2.20
2018-12-15T16:28:52.546Z,2.00
2018-12-15T16:31:20.117Z,1.90
2018-12-15T16:33:47.674Z,1.80
2018-12-15T16:36:15.554Z,1.80
2018-12-15T16:38:43.137Z,2.00
2018-12-15T16:41:10.781Z,2.00
2018-12-15T16:43:39.116Z,2.10
2018-12-15T16:46:06.773Z,2.00
2018-12-15T16:48:34.356Z,2.00
2018-12-15T16:51:01.934Z,2.10
2018-12-15T16:53:29.521Z,2.20
2018-12-15T16:55:57.089Z,2.20
2018-12-15T16:58:24.649Z,2.20
2018-12-15T17:00:52.289Z,2.20
2018-12-15T17:03:20.192Z,2.30
2018-12-15T17:05:47.739Z,2.30
2018-12-15T17:08:15.298Z,2.10
2018-12-15T17:10:42.906Z,1.90
2018-12-15T17:13:11.104Z,1.80
2018-12-15T17:15:38.618Z,1.80
2018-12-15T17:18:06.292Z,1.70
2018-12-15T17:20:34.700Z,1.80
2018-12-15T17:23:02.370Z,1.60
2018-12-15T17:25:30.521Z,1.60
2018-12-15T17:27:58.205Z,1.60
2018-12-15T17:30:25.791Z,1.60
2018-12-15T17:32:53.456Z,1.60
2018-12-15T17:35:21.595Z,1.70
2018-12-15T17:37:49.137Z,1.60
2018-12-15T17:40:17.375Z,1.40
2018-12-15T17:42:44.953Z,1.40
2018-12-15T17:45:12.531Z,1.40
2018-12-15T17:47:40.104Z,1.20
2018-12-15T17:50:08.237Z,1.30
2018-12-15T17:52:35.861Z,1.20
2018-12-15T17:55:05.193Z,1.20
2018-12-15T17:57:32.736Z,1.20
2018-12-15T18:00:00.277Z,1.20
2018-12-15T18:02:27.900Z,1.20
2018-12-15T18:04:55.565Z,1.20
2018-12-15T18:07:24.975Z,1.10
2018-12-15T18:09:52.559Z,1.10
2018-12-15T18:12:20.235Z,1.10
2018-12-15T18:14:47.811Z,1.10
2018-12-15T18:17:15.428Z,1.00
2018-12-15T18:19:43.081Z,0.90
2018-12-15T18:22:10.658Z,0.90
2018-12-15T18:24:38.326Z,0.90
2018-12-15T18:27:05.953Z,0.90
2018-12-15T18:29:33.572Z,0.90
2018-12-15T18:32:01.104Z,0.90
2018-12-15T18:34:28.667Z,0.90
2018-12-15T18:36:56.204Z,0.90
2018-12-15T18:39:23.722Z,0.90
2018-12-15T18:41:53.256Z,0.90
2018-12-15T18:44:20.778Z,0.80
2018-12-15T18:46:48.374Z,0.80
2018-12-15T18:49:15.932Z,0.80
2018-12-15T18:51:43.507Z,0.90
2018-12-15T18:54:23.899Z,0.90
2018-12-15T18:56:52.655Z,0.80
2018-12-15T18:59:20.445Z,0.80
2018-12-15T19:01:48.003Z,0.80
2018-12-15T19:06:50.694Z,0.90
2018-12-15T19:09:18.231Z,0.90
2018-12-15T19:11:45.905Z,0.80
2018-12-15T19:14:13.455Z,0.80
2018-12-15T19:16:41.033Z,0.80
2018-12-15T19:19:08.559Z,0.90
2018-12-15T19:21:37.407Z,0.90
2018-12-15T19:24:05.487Z,0.90
2018-12-15T19:26:33.037Z,1.00
2018-12-15T19:29:00.569Z,0.90
2018-12-15T19:31:28.120Z,1.00
2018-12-15T19:33:55.661Z,1.00
2018-12-15T19:36:23.226Z,1.00
2018-12-15T19:38:50.754Z,1.00
2018-12-15T19:41:19.135Z,1.10
2018-12-15T19:43:46.695Z,1.10
2018-12-15T19:46:14.228Z,1.10
2018-12-15T19:48:41.773Z,1.20
2018-12-15T19:51:09.306Z,1.20
2018-12-15T19:53:38.031Z,1.30
2018-12-15T19:56:05.620Z,1.50
2018-12-15T19:58:33.405Z,1.60
2018-12-15T20:01:00.964Z,1.50
2018-12-15T20:03:28.839Z,1.50
2018-12-15T20:05:57.338Z,1.40
2018-12-15T20:08:24.919Z,1.50
2018-12-15T20:10:53.006Z,1.50
2018-12-15T20:13:20.525Z,1.70
2018-12-15T20:15:48.074Z,1.70
2018-12-15T20:18:15.585Z,1.60
2018-12-15T20:20:43.412Z,1.60
2018-12-15T20:23:12.231Z,1.60
2018-12-15T20:25:40.545Z,1.60
2018-12-15T20:28:08.099Z,1.70
2018-12-15T20:30:35.616Z,1.90
2018-12-15T20:33:03.384Z,2.00
2018-12-15T20:35:30.943Z,1.90
2018-12-15T20:37:58.502Z,1.80
2018-12-15T20:40:26.075Z,1.70
2018-12-15T20:42:53.658Z,1.70
2018-12-15T20:45:22.069Z,1.70
2018-12-15T20:47:49.705Z,1.80
2018-12-15T20:50:19.330Z,1.70
2018-12-15T20:52:49.955Z,1.80
2018-12-15T20:55:17.535Z,1.70
2018-12-15T20:57:48.026Z,1.80
2018-12-15T21:00:16.305Z,1.90
2018-12-15T21:02:44.542Z,1.90
2018-12-15T21:05:12.314Z,2.00
2018-12-15T21:07:40.883Z,1.90
2018-12-15T21:10:08.691Z,1.90
2018-12-15T21:12:36.229Z,1.90
2018-12-15T21:15:06.649Z,2.00
2018-12-15T21:17:35.149Z,1.80
2018-12-15T21:20:02.733Z,1.70
2018-12-15T21:22:31.023Z,1.70
2018-12-15T21:24:58.584Z,1.80
2018-12-15T21:27:26.103Z,1.70
2018-12-15T21:29:53.649Z,1.60
2018-12-15T21:32:21.212Z,1.60
2018-12-15T21:34:49.276Z,1.50
2018-12-15T21:37:16.793Z,1.60
2018-12-15T21:39:44.325Z,1.80
2018-12-15T21:42:11.850Z,1.90
2018-12-15T21:44:40.178Z,1.80
2018-12-15T21:47:08.679Z,1.80
2018-12-15T21:49:36.229Z,1.80
2018-12-15T21:52:04.685Z,1.50
2018-12-15T21:54:32.233Z,1.50
2018-12-15T21:56:59.867Z,1.70
2018-12-15T21:59:27.391Z,1.70
2018-12-15T22:01:56.853Z,1.70
2018-12-15T22:04:25.861Z,1.60
2018-12-15T22:06:54.702Z,1.40
2018-12-15T22:09:22.513Z,1.40
2018-12-15T22:11:50.211Z,1.30
2018-12-15T22:14:18.445Z,1.30
2018-12-15T22:16:46.030Z,1.20
2018-12-15T22:19:13.562Z,1.10
2018-12-15T22:21:41.135Z,1.00
2018-12-15T22:24:08.712Z,1.00
2018-12-15T22:26:36.839Z,0.90
2018-12-15T22:29:04.385Z,0.90
2018-12-15T22:31:31.962Z,0.90
2018-12-15T22:33:59.536Z,0.80
2018-12-15T22:36:27.418Z,0.70
2018-12-15T22:38:54.991Z,0.70
2018-12-15T22:41:23.335Z,0.70
2018-12-15T22:43:50.918Z,0.70
2018-12-15T22:46:18.542Z,0.60
2018-12-15T22:48:46.096Z,0.60
2018-12-15T22:51:13.631Z,0.60
2018-12-15T22:53:41.479Z,0.50
2018-12-15T22:56:09.010Z,0.60
2018-12-15T22:58:36.530Z,0.50
2018-12-15T23:01:09.924Z,0.50
2018-12-15T23:03:37.484Z,0.50
2018-12-15T23:06:05.051Z,0.40
2018-12-15T23:08:33.036Z,0.40
2018-12-15T23:11:00.617Z,0.40
2018-12-15T23:13:29.380Z,0.50
2018-12-15T23:15:57.068Z,0.50
2018-12-15T23:18:24.584Z,0.40
2018-12-15T23:20:52.222Z,0.50
2018-12-15T23:23:19.885Z,0.50
2018-12-15T23:25:47.397Z,0.50
2018-12-15T23:28:14.925Z,0.40
2018-12-15T23:30:43.093Z,0.40
2018-12-15T23:33:13.424Z,0.40
2018-12-15T23:35:40.948Z,0.40
2018-12-15T23:38:08.504Z,0.40
2018-12-15T23:40:36.003Z,0.30
2018-12-15T23:43:03.588Z,0.30
2018-12-15T23:45:31.130Z,0.20
2018-12-15T23:47:58.627Z,0.10
2018-12-15T23:50:26.219Z,0.10
2018-12-15T23:52:53.806Z,0.10
2018-12-15T23:55:21.285Z,0.00
2018-12-15T23:57:48.976Z,0.00
